Time;durP1;ratioP1;P1;durP2;ratioP2;P2;SDS_P1;SDS_P2;PMS_P1;PMS_P2;Temp;Humidity;BMP_temperature;BMP_pressure;BME280_temperature;BME280_humidity;BME280_pressure;Samples;Min_cycle;Max_cycle;Signal;HPM_P1;HPM_P2
2021/11/17 02:26:28;;;;;;;6.00;2.73;;;5.10;99.90;;;;;;4939663;29;20102;-90
2021/11/17 02:29:16;;;;;;;8.83;2.70;;;5.10;99.90;;;;;;4938005;29;20054;-90
2021/11/17 02:32:02;;;;;;;5.90;2.40;;;5.10;99.90;;;;;;4938070;29;20074;-90
2021/11/17 02:34:27;;;;;;;6.17;2.60;;;5.10;99.90;;;;;;4938949;28;20793;-91
2021/11/17 02:37:20;;;;;;;8.13;2.70;;;5.10;99.90;;;;;;4956072;29;20039;-91
2021/11/17 02:39:56;;;;;;;6.30;2.73;;;5.10;99.90;;;;;;4942747;29;20441;-90
2021/11/17 02:42:33;;;;;;;5.40;2.03;;;5.10;99.90;;;;;;4920855;29;20115;-91
2021/11/17 02:45:15;;;;;;;5.73;2.00;;;5.10;99.90;;;;;;4920230;29;20186;-91
2021/11/17 02:48:02;;;;;;;8.60;2.47;;;5.10;99.90;;;;;;4941873;28;20032;-91
2021/11/17 02:50:49;;;;;;;6.00;2.13;;;5.10;99.90;;;;;;4939542;29;20107;-90
2021/11/17 02:53:24;;;;;;;5.97;2.50;;;5.10;99.90;;;;;;4937255;29;20448;-92
2021/11/17 02:56:11;;;;;;;7.27;2.30;;;5.10;99.90;;;;;;4926419;29;20115;-91
2021/11/17 02:58:56;;;;;;;5.97;2.50;;;5.10;99.90;;;;;;4945534;29;20106;-90
2021/11/17 03:01:59;;;;;;;8.57;2.67;;;5.10;99.90;;;;;;4940224;29;20035;-91
2021/11/17 03:04:50;;;;;;;6.13;2.60;;;5.20;99.90;;;;;;4979794;23;20125;-89
2021/11/17 03:07:24;;;;;;;6.93;2.60;;;5.20;99.90;;;;;;4959263;29;20055;-88
2021/11/17 03:10:05;;;;;;;4.27;1.90;;;5.20;99.90;;;;;;4953593;29;20027;-88
2021/11/17 03:12:42;;;;;;;7.17;2.40;;;5.20;99.90;;;;;;4937363;29;20035;-88
2021/11/17 03:15:17;;;;;;;5.07;2.20;;;5.20;99.90;;;;;;4937177;29;20091;-88
2021/11/17 03:18:04;;;;;;;6.83;2.80;;;5.10;99.90;;;;;;4937279;29;20123;-88
2021/11/17 03:20:43;;;;;;;5.27;2.43;;;5.10;99.90;;;;;;4936834;29;20027;-88
2021/11/17 03:23:40;;;;;;;8.10;2.77;;;5.10;99.90;;;;;;4902804;29;20062;-88
2021/11/17 03:26:23;;;;;;;5.47;2.50;;;5.10;99.90;;;;;;4934550;29;20024;-88
2021/11/17 03:29:07;;;;;;;5.30;2.50;;;5.10;99.90;;;;;;4934692;29;20031;-88
2021/11/17 03:31:42;;;;;;;6.93;2.37;;;5.10;99.90;;;;;;4950209;29;20075;-88
2021/11/17 03:34:29;;;;;;;5.30;2.10;;;5.10;99.90;;;;;;4921785;29;20023;-89
2021/11/17 03:37:30;;;;;;;6.30;2.70;;;5.10;99.90;;;;;;4937353;29;20051;-89
2021/11/17 03:40:07;;;;;;;6.70;2.50;;;5.10;99.90;;;;;;4933073;29;20090;-89
2021/11/17 03:43:20;;;;;;;5.83;2.77;;;5.20;99.90;;;;;;4937014;29;20059;-88
2021/11/17 03:45:54;;;;;;;7.50;2.50;;;5.10;99.90;;;;;;4934842;29;20039;-89
2021/11/17 03:48:35;;;;;;;5.00;2.23;;;5.10;99.90;;;;;;4923369;29;20472;-89
2021/11/17 03:51:23;;;;;;;5.50;2.20;;;5.20;99.90;;;;;;4925601;29;20027;-88
2021/11/17 03:54:20;;;;;;;7.57;2.70;;;5.10;99.90;;;;;;4926668;29;20071;-88
2021/11/17 03:57:02;;;;;;;8.60;3.10;;;5.20;99.90;;;;;;4924107;29;20039;-88
2021/11/17 03:59:49;;;;;;;6.80;2.70;;;5.20;99.90;;;;;;4942200;29;20122;-89
2021/11/17 04:02:32;;;;;;;5.60;2.33;;;5.10;99.90;;;;;;4955907;28;20058;-89
2021/11/17 04:05:30;;;;;;;4.90;2.50;;;5.10;99.90;;;;;;4941661;29;20035;-89
2021/11/17 04:08:15;;;;;;;6.50;2.53;;;5.20;99.90;;;;;;4910380;29;20028;-89
2021/11/17 04:11:02;;;;;;;4.73;2.53;;;5.20;99.90;;;;;;4936399;28;20038;-89
2021/11/17 04:13:49;;;;;;;7.63;3.03;;;5.10;99.90;;;;;;4967815;28;20038;-89
2021/11/17 04:16:33;;;;;;;6.70;2.70;;;5.10;99.90;;;;;;4940449;29;20034;-89
2021/11/17 04:19:16;;;;;;;8.23;3.07;;;5.10;99.90;;;;;;4939977;29;20470;-89
2021/11/17 04:22:14;;;;;;;6.53;2.63;;;5.10;99.90;;;;;;4936324;29;20109;-89
2021/11/17 04:25:09;;;;;;;7.70;2.10;;;5.00;99.90;;;;;;4904633;29;20162;-89
2021/11/17 04:27:38;;;;;;;7.53;2.97;;;5.00;99.90;;;;;;4933508;29;20035;-89
2021/11/17 04:30:34;;;;;;;6.30;2.50;;;5.00;99.90;;;;;;4954353;29;20095;-90
2021/11/17 04:33:43;;;;;;;6.47;2.10;;;5.00;99.90;;;;;;4956802;29;20027;-89
2021/11/17 04:36:09;;;;;;;6.50;2.37;;;5.00;99.90;;;;;;4900956;29;20028;-89
2021/11/17 04:38:44;;;;;;;7.10;2.23;;;4.90;99.90;;;;;;4930857;29;20027;-89
2021/11/17 04:41:31;;;;;;;9.17;2.47;;;4.90;99.90;;;;;;4939446;29;20019;-88
2021/11/17 04:44:02;;;;;;;6.70;2.37;;;5.00;99.90;;;;;;4938920;29;20471;-89
2021/11/17 04:46:31;;;;;;;5.63;1.92;;;5.00;99.90;;;;;;4904431;29;20024;-89
2021/11/17 04:49:28;;;;;;;5.77;2.13;;;5.00;99.90;;;;;;4937123;29;20051;-89
2021/11/17 04:52:13;;;;;;;10.07;2.23;;;5.00;99.90;;;;;;4942965;28;20023;-87
2021/11/17 04:54:52;;;;;;;5.50;2.50;;;5.00;99.90;;;;;;4954179;29;20043;-87
2021/11/17 04:57:27;;;;;;;4.83;2.13;;;5.00;99.90;;;;;;4907526;29;20062;-87
2021/11/17 05:00:04;;;;;;;5.77;2.13;;;5.00;99.90;;;;;;4937412;29;20027;-87
2021/11/17 05:02:56;;;;;;;5.83;2.10;;;5.00;99.90;;;;;;4927251;29;20036;-88
2021/11/17 05:05:27;;;;;;;6.07;2.20;;;5.00;99.90;;;;;;4931765;29;20078;-87
2021/11/17 05:08:11;;;;;;;5.80;2.10;;;5.10;99.90;;;;;;4936321;29;20259;-88
2021/11/17 05:10:58;;;;;;;5.70;2.47;;;5.00;99.90;;;;;;4930442;29;20309;-88
2021/11/17 05:13:42;;;;;;;5.17;2.13;;;5.10;99.90;;;;;;4957930;29;20031;-88
2021/11/17 05:16:54;;;;;;;6.57;2.10;;;5.00;99.90;;;;;;4959268;28;20386;-87
2021/11/17 05:19:39;;;;;;;4.93;2.07;;;5.10;99.90;;;;;;4937354;28;20023;-87
2021/11/17 05:22:27;;;;;;;5.97;2.07;;;5.10;99.90;;;;;;4917285;29;20063;-88
2021/11/17 05:25:19;;;;;;;5.33;2.30;;;5.10;99.90;;;;;;4953448;28;20105;-88
2021/11/17 05:28:01;;;;;;;9.90;2.45;;;5.10;99.90;;;;;;4892843;29;20038;-88
2021/11/17 05:31:01;;;;;;;6.18;2.25;;;5.10;99.90;;;;;;4930046;28;20054;-88
2021/11/17 05:33:45;;;;;;;5.07;2.20;;;5.10;99.90;;;;;;4910958;29;20114;-88
2021/11/17 05:36:43;;;;;;;4.40;1.70;;;5.10;99.90;;;;;;4950088;28;20023;-88
2021/11/17 05:39:17;;;;;;;5.60;1.97;;;5.10;99.90;;;;;;4912225;28;20032;-87
2021/11/17 05:42:07;;;;;;;5.47;2.50;;;5.10;99.90;;;;;;4933140;28;20023;-87
2021/11/17 05:45:03;;;;;;;7.97;2.70;;;5.10;99.90;;;;;;4952024;29;20035;-88
2021/11/17 05:48:00;;;;;;;5.53;2.27;;;5.10;99.90;;;;;;4924659;29;20507;-89
2021/11/17 05:50:25;;;;;;;7.17;2.10;;;5.10;99.90;;;;;;4920405;29;20059;-88
2021/11/17 05:53:11;;;;;;;5.40;1.90;;;5.20;99.90;;;;;;4936157;29;20047;-89
2021/11/17 05:56:01;;;;;;;4.57;2.03;;;5.10;99.90;;;;;;4949320;28;20562;-89
2021/11/17 05:58:36;;;;;;;10.83;2.63;;;5.20;99.90;;;;;;4936362;29;20130;-89
2021/11/17 06:01:22;;;;;;;4.43;1.83;;;5.20;99.90;;;;;;4953110;29;20034;-89
2021/11/17 06:03:58;;;;;;;6.23;2.47;;;5.20;99.90;;;;;;4927547;29;20038;-89
2021/11/17 06:06:24;;;;;;;6.33;2.03;;;5.20;99.90;;;;;;4958004;28;20038;-89
2021/11/17 06:08:50;;;;;;;5.47;2.00;;;5.20;99.90;;;;;;4949072;28;20134;-88
2021/11/17 06:11:18;;;;;;;6.27;2.27;;;5.10;99.90;;;;;;4935370;29;20118;-89
2021/11/17 06:13:44;;;;;;;5.50;2.50;;;5.10;99.90;;;;;;4952268;28;20452;-89
2021/11/17 06:16:10;;;;;;;5.50;2.20;;;5.00;99.90;;;;;;4951868;28;20029;-89
2021/11/17 06:18:37;;;;;;;5.43;2.30;;;5.00;99.90;;;;;;4952065;29;20117;-88
2021/11/17 06:21:07;;;;;;;5.37;2.00;;;5.00;99.90;;;;;;4945288;29;20094;-90
2021/11/17 06:23:42;;;;;;;5.43;2.43;;;5.00;99.90;;;;;;4953430;28;20122;-86
2021/11/17 06:26:10;;;;;;;5.57;2.20;;;5.00;99.90;;;;;;4939630;29;20058;-87
2021/11/17 06:28:37;;;;;;;6.00;2.07;;;5.00;99.90;;;;;;4935849;29;20451;-87
2021/11/17 06:31:03;;;;;;;5.20;1.80;;;5.00;99.90;;;;;;4935594;29;20858;-87
2021/11/17 06:33:29;;;;;;;5.87;2.20;;;5.10;99.90;;;;;;4950552;29;20031;-88
2021/11/17 06:35:54;;;;;;;8.20;2.20;;;5.10;99.90;;;;;;4935203;29;20122;-87
2021/11/17 06:38:20;;;;;;;6.20;2.53;;;5.10;99.90;;;;;;4953414;29;20543;-87
2021/11/17 06:40:48;;;;;;;6.77;2.63;;;5.10;99.90;;;;;;4941477;29;20026;-87
2021/11/17 06:43:15;;;;;;;6.37;2.43;;;5.10;99.90;;;;;;4936846;29;20106;-87
2021/11/17 06:45:43;;;;;;;5.07;1.73;;;5.10;99.90;;;;;;4936822;29;20458;-87
2021/11/17 06:48:11;;;;;;;4.87;1.70;;;5.10;99.90;;;;;;4937030;29;20035;-88
2021/11/17 06:50:40;;;;;;;4.43;2.00;;;5.10;99.90;;;;;;4925742;29;20035;-89
2021/11/17 06:53:06;;;;;;;4.50;1.87;;;5.10;99.90;;;;;;4933089;29;20512;-90
2021/11/17 06:55:32;;;;;;;4.73;1.50;;;5.10;99.90;;;;;;4935291;29;20023;-89
2021/11/17 06:57:58;;;;;;;5.30;1.63;;;5.10;99.90;;;;;;4935049;29;20096;-89
2021/11/17 07:00:53;;;;;;;5.83;1.67;;;5.10;99.90;;;;;;4951499;28;20027;-89
2021/11/17 07:03:19;;;;;;;6.47;1.80;;;5.10;99.90;;;;;;4955883;29;20106;-89
2021/11/17 07:05:45;;;;;;;4.87;2.07;;;5.10;99.90;;;;;;4957375;29;20499;-90
2021/11/17 07:08:10;;;;;;;5.07;2.13;;;5.10;99.90;;;;;;4939562;29;20070;-89
2021/11/17 07:10:37;;;;;;;3.93;1.63;;;5.10;99.90;;;;;;4952204;28;20023;-90
2021/11/17 07:13:06;;;;;;;5.60;1.90;;;5.10;99.90;;;;;;4971653;28;20042;-89
2021/11/17 07:15:34;;;;;;;5.83;1.70;;;5.10;99.90;;;;;;4972459;28;20030;-89
2021/11/17 07:18:05;;;;;;;5.27;1.43;;;5.10;99.90;;;;;;4942087;29;20040;-89
2021/11/17 07:20:33;;;;;;;4.75;1.88;;;5.10;99.90;;;;;;4953913;29;20035;-89
2021/11/17 07:22:58;;;;;;;5.53;1.73;;;5.20;99.90;;;;;;4962112;28;20051;-90
2021/11/17 07:25:25;;;;;;;5.23;1.60;;;5.20;99.90;;;;;;4963351;29;20043;-91
2021/11/17 07:27:51;;;;;;;5.27;2.00;;;5.20;99.90;;;;;;4936855;29;20035;-90
2021/11/17 07:30:29;;;;;;;4.33;1.80;;;5.20;99.90;;;;;;4941110;29;20031;-90
2021/11/17 07:32:56;;;;;;;4.77;1.57;;;5.20;99.90;;;;;;4938981;29;20028;-90
2021/11/17 07:35:24;;;;;;;5.43;1.47;;;5.20;99.90;;;;;;4966585;28;20023;-90
2021/11/17 07:37:51;;;;;;;6.10;2.07;;;5.20;99.90;;;;;;4941767;29;20120;-90
2021/11/17 07:40:21;;;;;;;6.13;1.83;;;5.20;99.90;;;;;;4941715;29;20349;-91
2021/11/17 07:42:47;;;;;;;5.43;1.50;;;5.20;99.90;;;;;;4941227;29;20023;-89
2021/11/17 07:45:17;;;;;;;4.07;1.43;;;5.10;99.90;;;;;;4953107;28;20041;-88
2021/11/17 07:47:43;;;;;;;6.07;1.60;;;5.10;99.90;;;;;;4941483;29;20023;-90
2021/11/17 07:50:10;;;;;;;5.53;1.87;;;5.10;99.90;;;;;;4940487;29;20170;-90
2021/11/17 07:52:36;;;;;;;4.53;1.87;;;5.20;99.90;;;;;;4941239;29;20027;-91
2021/11/17 07:55:11;;;;;;;6.03;2.17;;;5.20;99.90;;;;;;4937401;28;20087;-91
2021/11/17 07:57:43;;;;;;;4.33;1.50;;;5.10;99.90;;;;;;4941776;29;20089;-91
2021/11/17 08:00:18;;;;;;;4.40;1.55;;;5.10;99.90;;;;;;4961770;28;20027;-91
2021/11/17 08:02:47;;;;;;;5.23;1.80;;;5.10;99.90;;;;;;4941298;29;20558;-91
2021/11/17 08:05:18;;;;;;;4.07;1.60;;;5.20;99.90;;;;;;4939740;29;20122;-90
2021/11/17 08:07:53;;;;;;;6.50;1.90;;;5.20;99.90;;;;;;4940956;29;20024;-91
2021/11/17 08:10:25;;;;;;;5.07;1.63;;;5.10;99.90;;;;;;4940978;28;20054;-90
2021/11/17 08:12:53;;;;;;;4.50;1.95;;;5.10;99.90;;;;;;4945473;29;20027;-90
2021/11/17 08:15:21;;;;;;;4.53;1.70;;;5.20;99.90;;;;;;4940493;29;20035;-90
2021/11/17 08:17:46;;;;;;;5.00;1.77;;;5.20;99.90;;;;;;4957576;29;20034;-90
2021/11/17 08:20:16;;;;;;;5.93;1.87;;;5.20;99.90;;;;;;4936138;29;20027;-90
2021/11/17 08:22:48;;;;;;;3.47;1.30;;;5.20;99.90;;;;;;4936772;29;20028;-91
2021/11/17 08:25:17;;;;;;;2.55;0.98;;;5.20;99.90;;;;;;4936471;29;20036;-91
2021/11/17 08:27:45;;;;;;;5.83;1.70;;;5.20;99.90;;;;;;4940284;28;20050;-93
2021/11/17 08:30:12;;;;;;;3.90;1.63;;;5.30;99.90;;;;;;4957758;29;20023;-91
2021/11/17 08:32:40;;;;;;;6.63;1.43;;;5.30;99.90;;;;;;4939587;28;20027;-91
2021/11/17 08:35:08;;;;;;;5.43;1.57;;;5.30;99.90;;;;;;4939591;29;20073;-91
2021/11/17 08:37:35;;;;;;;4.53;1.67;;;5.30;99.90;;;;;;4941911;28;20035;-91
2021/11/17 08:40:13;;;;;;;6.10;2.23;;;5.40;99.90;;;;;;4939310;29;20058;-90
2021/11/17 08:42:40;;;;;;;6.07;1.53;;;5.40;99.90;;;;;;4939482;29;20110;-90
2021/11/17 08:45:07;;;;;;;4.70;2.03;;;5.40;99.90;;;;;;4940057;29;20034;-90
2021/11/17 08:47:33;;;;;;;6.27;1.60;;;5.50;99.90;;;;;;4936568;29;20508;-89
2021/11/17 08:49:59;;;;;;;4.10;1.80;;;5.50;99.90;;;;;;4937664;29;20109;-91
2021/11/17 08:52:27;;;;;;;4.23;1.77;;;5.50;99.90;;;;;;4939569;29;20030;-91
2021/11/17 08:54:57;;;;;;;3.57;1.37;;;5.60;99.90;;;;;;4934282;29;20031;-91
2021/11/17 08:57:25;;;;;;;2.67;1.13;;;5.60;99.90;;;;;;4958951;28;20034;-90
2021/11/17 08:59:51;;;;;;;3.67;1.40;;;5.60;99.90;;;;;;4939183;29;20054;-90
2021/11/17 09:02:17;;;;;;;5.00;1.53;;;5.60;99.90;;;;;;4955735;28;20026;-91
2021/11/17 09:04:53;;;;;;;4.87;1.73;;;5.60;99.90;;;;;;4942894;29;20399;-91
2021/11/17 09:07:19;;;;;;;4.70;1.43;;;5.60;99.90;;;;;;4937517;29;20023;-90
2021/11/17 09:09:45;;;;;;;4.83;1.43;;;5.60;99.90;;;;;;4943267;28;20042;-91
2021/11/17 09:12:12;;;;;;;4.27;1.40;;;5.70;99.90;;;;;;4951361;29;20030;-88
2021/11/17 09:14:38;;;;;;;2.80;1.20;;;5.70;99.90;;;;;;4934936;29;20028;-90
2021/11/17 09:17:06;;;;;;;4.20;1.40;;;5.70;99.90;;;;;;4936545;29;20028;-89
2021/11/17 09:19:32;;;;;;;3.70;1.30;;;5.70;99.90;;;;;;4941245;29;20027;-90
2021/11/17 09:21:58;;;;;;;4.17;1.60;;;5.70;99.90;;;;;;4937802;29;20043;-90
2021/11/17 09:24:23;;;;;;;4.33;1.47;;;5.70;99.90;;;;;;4938366;29;20031;-90
2021/11/17 09:26:54;;;;;;;3.93;1.47;;;5.70;99.90;;;;;;4935764;29;20400;-90
2021/11/17 09:29:22;;;;;;;3.03;1.17;;;5.70;99.90;;;;;;4947251;29;20027;-90
2021/11/17 09:31:47;;;;;;;3.63;1.30;;;5.70;99.90;;;;;;4934430;29;20083;-89
2021/11/17 09:34:15;;;;;;;3.53;1.20;;;5.70;99.90;;;;;;4934676;29;20039;-90
2021/11/17 09:36:42;;;;;;;2.80;0.97;;;5.60;99.90;;;;;;4935360;29;20491;-90
2021/11/17 09:39:10;;;;;;;2.23;0.77;;;5.50;99.90;;;;;;4934566;29;20412;-90
2021/11/17 09:41:46;;;;;;;2.03;0.70;;;5.40;99.90;;;;;;4934410;29;20044;-90
2021/11/17 09:44:25;;;;;;;3.23;1.20;;;5.40;99.90;;;;;;4936075;29;20031;-89
2021/11/17 09:46:51;;;;;;;1.87;0.57;;;5.40;99.90;;;;;;4936121;29;20047;-90
2021/11/17 09:49:32;;;;;;;1.83;0.70;;;5.40;99.90;;;;;;4937580;29;20036;-89
2021/11/17 09:52:01;;;;;;;1.50;0.50;;;5.40;99.90;;;;;;4939996;23;20487;-89
2021/11/17 09:54:42;;;;;;;1.87;0.60;;;5.50;99.90;;;;;;4936829;29;20129;-89
2021/11/17 09:57:14;;;;;;;2.47;1.00;;;5.50;99.90;;;;;;4937474;29;20079;-90
2021/11/17 09:59:50;;;;;;;2.40;0.70;;;5.50;99.90;;;;;;4920730;29;20040;-90
2021/11/17 10:02:37;;;;;;;1.80;0.40;;;5.50;99.90;;;;;;4936648;29;20111;-91
2021/11/17 10:05:24;;;;;;;1.40;0.50;;;5.60;99.90;;;;;;4936830;29;20043;-90
2021/11/17 10:13:49;;;;;;;3.47;0.70;;;5.60;99.90;;;;;;4956117;29;20095;-90
2021/11/17 10:16:15;;;;;;;2.23;0.70;;;5.60;99.90;;;;;;4937102;29;20027;-90
2021/11/17 10:18:44;;;;;;;2.33;0.60;;;5.50;99.90;;;;;;4935739;29;20098;-89
2021/11/17 10:21:36;;;;;;;2.57;0.60;;;5.60;99.90;;;;;;4919203;29;20396;-90
2021/11/17 10:24:11;;;;;;;2.83;0.70;;;5.50;99.90;;;;;;4916765;29;20042;-89
2021/11/17 10:27:01;;;;;;;1.60;0.60;;;5.60;99.90;;;;;;4951658;29;20041;-90
2021/11/17 10:29:52;;;;;;;2.07;0.70;;;5.60;99.90;;;;;;4952827;29;20034;-90
2021/11/17 10:32:39;;;;;;;3.27;0.57;;;5.60;99.90;;;;;;4954516;29;20106;-91
2021/11/17 10:35:24;;;;;;;2.83;0.77;;;5.50;99.90;;;;;;4904662;29;20038;-93
2021/11/17 10:38:10;;;;;;;0.77;0.43;;;5.50;99.90;;;;;;4918749;29;20024;-92
2021/11/17 10:40:55;;;;;;;2.47;0.73;;;5.60;99.90;;;;;;4944833;29;20047;-92
2021/11/17 10:43:34;;;;;;;2.20;0.80;;;5.50;99.90;;;;;;4937493;29;20031;-93
2021/11/17 10:46:08;;;;;;;2.10;0.70;;;5.50;99.90;;;;;;4938297;29;20035;-93
2021/11/17 10:48:43;;;;;;;2.23;0.83;;;5.60;99.90;;;;;;4941028;29;20103;-93
2021/11/17 10:51:17;;;;;;;3.50;0.80;;;5.60;99.90;;;;;;4946416;29;20036;-93
2021/11/17 10:53:48;;;;;;;0.83;0.37;;;5.60;99.90;;;;;;4925029;29;20106;-92
2021/11/17 10:56:18;;;;;;;1.93;0.57;;;5.70;99.90;;;;;;4909150;29;20110;-92
2021/11/17 10:58:53;;;;;;;0.70;0.30;;;5.80;99.90;;;;;;4910338;29;20112;-93
2021/11/17 11:01:27;;;;;;;2.10;0.60;;;5.70;99.90;;;;;;4913011;29;20035;-91
2021/11/17 11:03:58;;;;;;;1.97;0.67;;;5.90;99.90;;;;;;4911407;29;20095;-92
2021/11/17 11:06:32;;;;;;;1.75;0.60;;;5.80;99.90;;;;;;4903598;29;20119;-92
2021/11/17 11:09:21;;;;;;;1.70;0.70;;;5.80;99.90;;;;;;4910778;29;20512;-91
2021/11/17 11:11:51;;;;;;;1.40;0.50;;;5.80;99.90;;;;;;4912135;29;20032;-91
2021/11/17 11:14:30;;;;;;;0.77;0.30;;;5.80;99.90;;;;;;4920056;29;20063;-91
2021/11/17 11:17:07;;;;;;;0.83;0.40;;;5.80;99.90;;;;;;4935101;29;20030;-91
2021/11/17 11:19:33;;;;;;;1.83;0.70;;;5.80;99.90;;;;;;4918373;29;20060;-91
2021/11/17 11:22:14;;;;;;;1.47;0.43;;;5.90;99.90;;;;;;4900262;29;20048;-91
2021/11/17 11:24:47;;;;;;;1.70;0.40;;;5.90;99.90;;;;;;4900183;29;20024;-92
2021/11/17 11:27:37;;;;;;;2.00;0.70;;;5.80;99.90;;;;;;4914202;29;20024;-92
2021/11/17 11:30:02;;;;;;;1.00;0.50;;;5.90;99.90;;;;;;4907353;29;20032;-91
2021/11/17 11:32:28;;;;;;;1.23;0.43;;;5.90;99.90;;;;;;4917256;29;20519;-92
2021/11/17 11:35:06;;;;;;;1.67;0.40;;;5.90;99.90;;;;;;4916924;29;20036;-91
2021/11/17 11:37:32;;;;;;;0.90;0.53;;;6.00;99.90;;;;;;4915154;29;20040;-92
2021/11/17 11:39:57;;;;;;;2.30;0.60;;;6.00;99.90;;;;;;4915536;29;20040;-92
2021/11/17 11:42:25;;;;;;;1.37;0.50;;;6.10;99.90;;;;;;4915611;29;20091;-90
2021/11/17 11:44:58;;;;;;;1.27;0.40;;;6.10;99.90;;;;;;4916682;29;20056;-91
2021/11/17 11:47:23;;;;;;;1.57;0.60;;;6.00;99.90;;;;;;4915669;29;20028;-92
2021/11/17 11:49:59;;;;;;;1.53;0.50;;;5.90;99.90;;;;;;4920313;29;20111;-91
2021/11/17 11:52:54;;;;;;;1.47;0.70;;;6.00;99.90;;;;;;4935464;29;20548;-91
2021/11/17 11:55:20;;;;;;;3.97;1.10;;;6.00;99.90;;;;;;4933605;29;20032;-91
2021/11/17 11:57:52;;;;;;;2.20;0.50;;;5.90;99.90;;;;;;4916216;29;20059;-89
2021/11/17 12:00:25;;;;;;;1.50;0.47;;;5.90;99.90;;;;;;4921773;29;20114;-92
2021/11/17 12:03:01;;;;;;;1.37;0.43;;;5.80;99.90;;;;;;4935302;29;20430;-91
2021/11/17 12:05:36;;;;;;;1.87;0.60;;;5.80;99.90;;;;;;4934313;29;20058;-91
2021/11/17 12:08:48;;;;;;;1.27;0.30;;;5.80;99.90;;;;;;4935818;29;20023;-91
2021/11/17 12:11:21;;;;;;;1.53;0.43;;;5.70;99.90;;;;;;4938664;29;20138;-91
2021/11/17 12:14:04;;;;;;;0.73;0.30;;;5.70;99.90;;;;;;4921596;29;20642;-91
2021/11/17 12:16:48;;;;;;;2.47;0.50;;;5.80;99.90;;;;;;4929788;29;20036;-91
2021/11/17 12:19:26;;;;;;;2.47;0.87;;;5.90;99.90;;;;;;4921862;29;20445;-91
2021/11/17 12:22:06;;;;;;;0.60;0.30;;;5.90;99.90;;;;;;4935621;29;20035;-91
2021/11/17 12:25:08;;;;;;;0.40;0.20;;;5.80;99.90;;;;;;4937034;29;20095;-91
2021/11/17 12:27:35;;;;;;;1.20;0.35;;;6.00;99.90;;;;;;4938658;29;20072;-91
2021/11/17 12:30:09;;;;;;;2.30;0.50;;;5.80;99.90;;;;;;4935452;29;20094;-90
2021/11/17 12:32:50;;;;;;;1.03;0.40;;;5.80;99.90;;;;;;4927282;29;20038;-91
2021/11/17 12:35:33;;;;;;;1.30;0.50;;;5.80;99.90;;;;;;4936654;29;20075;-91
2021/11/17 12:38:04;;;;;;;1.87;0.50;;;5.80;99.90;;;;;;4938277;29;20024;-91
2021/11/17 12:40:33;;;;;;;0.97;0.30;;;5.80;99.90;;;;;;4933867;29;20091;-90
2021/11/17 12:43:01;;;;;;;0.87;0.30;;;5.70;99.90;;;;;;4928231;29;20163;-91
2021/11/17 12:45:49;;;;;;;0.90;0.40;;;5.70;99.90;;;;;;4941119;29;20027;-91
2021/11/17 12:48:28;;;;;;;0.77;0.30;;;5.60;99.90;;;;;;4948859;29;20051;-90
2021/11/17 12:51:05;;;;;;;1.17;0.40;;;5.60;99.90;;;;;;4942431;29;20126;-91
2021/11/17 12:53:46;;;;;;;1.63;0.97;;;5.60;99.90;;;;;;4943577;29;20118;-90
2021/11/17 12:56:28;;;;;;;1.23;0.30;;;5.60;99.90;;;;;;4938762;29;20030;-90
2021/11/17 12:59:02;;;;;;;0.90;0.32;;;5.50;99.90;;;;;;4922100;29;20028;-90
2021/11/17 13:01:38;;;;;;;1.23;0.40;;;5.50;99.90;;;;;;4934764;29;20038;-91
2021/11/17 13:04:13;;;;;;;1.37;0.50;;;5.60;99.90;;;;;;4929668;29;20110;-89
2021/11/17 13:06:45;;;;;;;1.93;0.70;;;5.60;99.90;;;;;;4923890;29;20070;-92
2021/11/17 13:09:27;;;;;;;1.38;0.47;;;5.60;99.90;;;;;;4923301;29;20032;-91
2021/11/17 13:12:09;;;;;;;0.73;0.35;;;5.50;99.90;;;;;;4917799;29;20350;-92
2021/11/17 13:14:53;;;;;;;3.85;0.50;;;5.60;99.90;;;;;;4927736;29;20082;-92
2021/11/17 13:17:44;;;;;;;2.20;0.67;;;5.70;99.90;;;;;;4936563;29;20033;-91
2021/11/17 13:20:12;;;;;;;1.10;0.40;;;5.70;99.90;;;;;;4919463;29;20039;-91
2021/11/17 13:22:44;;;;;;;1.10;0.40;;;5.70;99.90;;;;;;4919940;29;20040;-91
2021/11/17 13:25:26;;;;;;;0.80;0.30;;;5.60;99.90;;;;;;4917103;29;20092;-91
2021/11/17 13:27:52;;;;;;;1.70;0.50;;;5.60;99.90;;;;;;4928388;29;20074;-91
2021/11/17 13:30:22;;;;;;;1.70;0.50;;;5.70;99.90;;;;;;4933250;29;20031;-91
2021/11/17 13:32:50;;;;;;;1.27;0.40;;;5.60;99.90;;;;;;4928874;29;20031;-90
2021/11/17 13:35:41;;;;;;;0.73;0.43;;;5.60;99.90;;;;;;4924461;29;20114;-93
2021/11/17 13:38:15;;;;;;;0.60;0.30;;;5.60;99.90;;;;;;4917251;29;20103;-91
2021/11/17 13:40:44;;;;;;;1.07;0.20;;;5.70;99.90;;;;;;4936462;29;20035;-91
2021/11/17 13:43:11;;;;;;;1.07;0.30;;;5.60;99.90;;;;;;4919199;29;20062;-91
2021/11/17 13:45:38;;;;;;;1.40;0.40;;;5.80;99.90;;;;;;4922616;29;20818;-91
2021/11/17 13:48:04;;;;;;;0.70;0.30;;;5.80;99.90;;;;;;4914683;29;20111;-91
2021/11/17 13:50:34;;;;;;;1.13;0.30;;;5.80;99.90;;;;;;4929102;29;20023;-91
2021/11/17 13:53:03;;;;;;;1.20;0.40;;;5.80;99.90;;;;;;4935032;29;20043;-91
2021/11/17 13:55:32;;;;;;;2.33;0.50;;;5.70;99.90;;;;;;4926554;29;20028;-91
2021/11/17 13:57:58;;;;;;;1.13;0.40;;;5.70;99.90;;;;;;4936708;29;20034;-89
2021/11/17 14:00:26;;;;;;;1.30;0.30;;;5.70;99.90;;;;;;4933390;29;20396;-90
2021/11/17 14:02:54;;;;;;;1.30;0.50;;;5.70;99.90;;;;;;4934839;29;20020;-90
2021/11/17 14:05:21;;;;;;;1.50;0.40;;;5.70;99.90;;;;;;4935448;29;20591;-89
2021/11/17 14:07:48;;;;;;;1.23;0.40;;;5.70;99.90;;;;;;4920154;29;20019;-90
2021/11/17 14:10:17;;;;;;;2.07;0.63;;;5.70;99.90;;;;;;4937980;29;20027;-89
2021/11/17 14:12:44;;;;;;;2.43;0.60;;;5.70;99.90;;;;;;4932066;29;20020;-90
2021/11/17 14:15:10;;;;;;;1.30;0.50;;;5.70;99.90;;;;;;4918735;29;20028;-90
2021/11/17 14:17:37;;;;;;;1.97;0.47;;;5.70;99.90;;;;;;4918470;29;20036;-90
2021/11/17 14:20:07;;;;;;;1.97;0.50;;;5.70;99.90;;;;;;4926060;29;20024;-88
2021/11/17 14:22:33;;;;;;;2.67;0.80;;;5.70;99.90;;;;;;4917269;29;20111;-89
2021/11/17 14:25:07;;;;;;;3.13;0.80;;;5.70;99.90;;;;;;4935187;29;20515;-89
2021/11/17 14:27:38;;;;;;;2.60;0.77;;;5.70;99.90;;;;;;4931168;29;20034;-89
2021/11/17 14:30:13;;;;;;;2.90;0.70;;;5.60;99.90;;;;;;4921338;29;20023;-90
2021/11/17 14:32:41;;;;;;;2.50;0.87;;;5.60;99.90;;;;;;4935826;29;20041;-90
2021/11/17 14:35:08;;;;;;;2.37;0.77;;;5.50;99.90;;;;;;4920471;29;20488;-89
2021/11/17 14:37:34;;;;;;;2.20;0.80;;;5.60;99.90;;;;;;4910759;29;20095;-89
2021/11/17 14:40:04;;;;;;;2.10;0.80;;;5.60;99.90;;;;;;4920710;29;20028;-88
2021/11/17 14:42:30;;;;;;;3.10;1.20;;;5.50;99.90;;;;;;4933792;29;20063;-89
2021/11/17 14:45:05;;;;;;;4.83;1.00;;;5.60;99.90;;;;;;4920779;29;20106;-89
2021/11/17 14:47:31;;;;;;;2.87;0.93;;;5.60;99.90;;;;;;4933276;29;20027;-87
2021/11/17 14:49:57;;;;;;;2.27;0.70;;;5.60;99.90;;;;;;4917471;29;20032;-89
2021/11/17 14:52:23;;;;;;;2.33;0.83;;;5.70;99.90;;;;;;4934031;29;20028;-89
2021/11/17 14:54:50;;;;;;;2.20;0.70;;;5.60;99.90;;;;;;4926485;29;20066;-89
2021/11/17 14:57:16;;;;;;;3.13;1.00;;;5.60;99.90;;;;;;4918776;29;20437;-89
2021/11/17 14:59:42;;;;;;;2.50;0.90;;;5.60;99.90;;;;;;4928181;29;20031;-89
2021/11/17 15:02:08;;;;;;;2.73;0.90;;;5.60;99.90;;;;;;4917890;29;20032;-88
2021/11/17 15:04:35;;;;;;;2.67;0.90;;;5.50;99.90;;;;;;4933973;29;20396;-90
2021/11/17 15:07:03;;;;;;;2.43;0.80;;;5.50;99.90;;;;;;4919136;29;20528;-89
2021/11/17 15:09:28;;;;;;;2.90;0.87;;;5.50;99.90;;;;;;4919475;29;20028;-90
2021/11/17 15:12:02;;;;;;;2.23;0.60;;;5.50;99.90;;;;;;4920272;29;20036;-89
2021/11/17 15:14:30;;;;;;;2.97;0.70;;;5.40;99.90;;;;;;4916163;29;20039;-90
2021/11/17 15:16:57;;;;;;;2.93;1.00;;;5.50;99.90;;;;;;4932922;29;20098;-89
2021/11/17 15:19:27;;;;;;;2.27;0.77;;;5.40;99.90;;;;;;4932624;29;20060;-90
2021/11/17 15:21:53;;;;;;;6.10;1.00;;;5.50;99.90;;;;;;4914799;29;20717;-90
2021/11/17 15:24:19;;;;;;;2.20;0.80;;;5.50;99.90;;;;;;4930944;29;20400;-90
2021/11/17 15:26:51;;;;;;;1.93;0.60;;;5.50;99.90;;;;;;4916189;29;20027;-90
2021/11/17 15:29:18;;;;;;;2.97;0.90;;;5.50;99.90;;;;;;4932025;29;20048;-90
2021/11/17 15:31:47;;;;;;;2.27;0.80;;;5.50;99.90;;;;;;4927100;29;20044;-89
2021/11/17 15:34:15;;;;;;;2.10;0.73;;;5.50;99.90;;;;;;4915063;29;20043;-89
2021/11/17 15:36:41;;;;;;;2.13;0.73;;;5.50;99.90;;;;;;4915824;29;20042;-89
2021/11/17 15:39:08;;;;;;;2.20;0.77;;;5.50;99.90;;;;;;4915867;29;20093;-88
2021/11/17 15:41:37;;;;;;;2.47;1.10;;;5.50;99.90;;;;;;4916026;29;20122;-89
2021/11/17 15:44:12;;;;;;;2.07;0.70;;;5.50;99.90;;;;;;4937332;29;20615;-89
2021/11/17 15:46:49;;;;;;;3.33;1.13;;;5.50;99.90;;;;;;4918569;29;20140;-90
2021/11/17 15:49:15;;;;;;;3.13;1.00;;;5.50;99.90;;;;;;4936290;29;20028;-88
2021/11/17 15:51:41;;;;;;;3.23;1.03;;;5.50;99.90;;;;;;4936255;29;20500;-88
2021/11/17 15:54:07;;;;;;;2.97;1.00;;;5.50;99.90;;;;;;4936666;29;20062;-87
2021/11/17 15:56:35;;;;;;;2.47;1.00;;;5.50;99.90;;;;;;4933835;29;20059;-89
2021/11/17 15:59:02;;;;;;;2.17;0.73;;;5.50;99.90;;;;;;4936340;29;20122;-89
2021/11/17 16:01:28;;;;;;;3.47;1.10;;;5.50;99.90;;;;;;4936254;29;20465;-88
2021/11/17 16:03:55;;;;;;;2.63;1.30;;;5.50;99.90;;;;;;4936657;29;20111;-89
2021/11/17 16:06:24;;;;;;;3.80;1.10;;;5.50;99.90;;;;;;4932819;29;20024;-87
2021/11/17 16:08:50;;;;;;;3.27;1.20;;;5.50;99.90;;;;;;4934158;29;20028;-88